Weather History for Red Oak, IA

Change the Weather History Date:

Thursday, October 25, 2012

  Actual Average Record
Temperature  
Mean Temperature 46 °F -  
Max Temperature 53 °F 62 °F 80 °F (1989)
Min Temperature 39 °F 38 °F 22 °F (1987)
Degree Days  
Heating Degree Days 19    
Moisture  
Dew Point 36 °F    
Average Humidity 78    
Maximum Humidity 93    
Minimum Humidity 61    
Precipitation  
Precipitation 0.46 in - - ()
Sea Level Pressure  
Sea Level Pressure 29.99 in    
Wind  
Wind Speed 15 mph (NNW)    
Max Wind Speed 24 mph    
Max Gust Speed 32 mph    
Visibility 9 miles    
Events Rain    
Averages and records for this station are not official NWS values.
T = Trace of Precipitation, MM = Missing Value Source: NWS Daily Summary

Daily Weather History Graph

Daily Weather History Graph

Search for Another Location

Airport:

Trip Planner

Search our weather history database for the weather conditions in past years. The results will help you decide how hot, cold, wet, or windy it might be!

Date:

Astronomy

Oct. 25, 2012 Rise Set
Actual Time 7:44 AM CDT 6:25 PM CDT
Civil Twilight 7:16 AM CDT 6:53 PM CDT
Nautical Twilight 6:43 AM CDT 7:25 PM CDT
Astronomical Twilight 6:12 AM CDT 7:57 PM CDT
Moon 4:13 PM CDT (10/25) 3:40 AM CDT (10/25)
Length of Visible Light 11h 37m
Length of Day
10h 40m
Waxing Gibbous, 84% of the Moon is Illuminated
Oct 25
Waxing Gibbous
Oct 29
Full
Nov 6
Last Quarter
Nov 13
New
Nov 20
First Quarter

Hourly Weather History & Observations

Time (CDT) Temp. Windchill Dew Point Humidity Pressure Visibility Wind Dir Wind Speed Gust Speed Precip Events Conditions
12:15 AM 53.6 °F - 48.2 °F 82% 29.71 in 7.0 mi North 15.0 mph 18.4 mph N/A Rain Light Rain
12:35 AM 53.6 °F - 48.2 °F 82% 29.68 in 7.0 mi North 9.2 mph - N/A   Overcast
12:55 AM 53.6 °F - 48.2 °F 82% 29.68 in 7.0 mi NNE 10.4 mph - N/A   Overcast
1:15 AM 51.8 °F - 48.2 °F 88% 29.66 in 7.0 mi NE 10.4 mph - N/A   Overcast
1:35 AM 53.6 °F - 48.2 °F 82% 29.66 in 10.0 mi North 8.1 mph - N/A   Overcast
1:55 AM 53.6 °F - 48.2 °F 82% 29.64 in 10.0 mi NNE 11.5 mph - N/A   Overcast
2:35 AM 53.6 °F - 48.2 °F 82% 29.64 in 10.0 mi North 13.8 mph 21.9 mph N/A   Overcast
2:55 AM 51.8 °F - 46.4 °F 82% 29.67 in 7.0 mi NNW 15.0 mph 25.3 mph 0.04 in Rain Rain
3:15 AM 51.8 °F - 46.4 °F 82% 29.65 in 10.0 mi NNW 11.5 mph - 0.03 in Rain Rain
3:35 AM 48.2 °F - 44.6 °F 87% 29.71 in 3.0 mi NNW 16.1 mph 32.2 mph 0.17 in Rain Light Rain
3:55 AM 46.4 °F 40.4 °F 42.8 °F 87% 29.70 in 10.0 mi North 13.8 mph 25.3 mph 0.19 in Rain Light Rain
4:15 AM 46.4 °F 39.8 °F 42.8 °F 87% 29.68 in 10.0 mi North 16.1 mph 21.9 mph N/A   Overcast
4:35 AM 46.4 °F 40.1 °F 42.8 °F 87% 29.67 in 10.0 mi NE 15.0 mph 23.0 mph N/A Rain Light Rain
4:55 AM 46.4 °F 40.1 °F 42.8 °F 87% 29.70 in 7.0 mi NW 15.0 mph 19.6 mph 0.01 in Rain Light Rain
5:15 AM 46.4 °F 39.5 °F 42.8 °F 87% 29.73 in 5.0 mi NW 17.3 mph 23.0 mph N/A Rain Light Rain
5:35 AM 44.6 °F 37.4 °F 41.0 °F 87% 29.73 in 10.0 mi NNW 16.1 mph 24.2 mph 0.06 in Rain Light Rain
5:55 AM 44.6 °F 37.2 °F 41.0 °F 87% 29.73 in 10.0 mi NNW 17.3 mph 25.3 mph 0.07 in Rain Rain
6:35 AM 42.8 °F 34.0 °F 39.2 °F 87% 29.77 in 5.0 mi NNW 20.7 mph 29.9 mph 0.05 in Rain Light Rain
6:55 AM 42.8 °F 35.1 °F 39.2 °F 87% 29.79 in 7.0 mi NNW 16.1 mph 25.3 mph 0.14 in Rain Light Rain
7:15 AM 42.8 °F 34.5 °F 37.4 °F 81% 29.79 in 10.0 mi NNW 18.4 mph 28.8 mph N/A Rain Light Rain
7:35 AM 42.8 °F 35.1 °F 37.4 °F 81% 29.79 in 10.0 mi NNW 16.1 mph 25.3 mph N/A Rain Light Rain
7:55 AM 41.0 °F 31.6 °F 37.4 °F 87% 29.81 in 10.0 mi NNW 20.7 mph 28.8 mph 0.01 in Rain Light Rain
8:55 AM 42.8 °F 35.4 °F 37.4 °F 81% 29.87 in 4.0 mi NNW 15.0 mph 25.3 mph N/A   Overcast
9:15 AM 41.0 °F 32.8 °F 37.4 °F 87% 29.88 in 4.0 mi NNW 16.1 mph 24.2 mph N/A   Light Drizzle
9:55 AM 39.2 °F 28.5 °F 35.6 °F 87% 29.91 in 7.0 mi NNW 24.2 mph 31.1 mph N/A   Overcast
10:35 AM 39.2 °F 29.0 °F 35.6 °F 87% 29.95 in 4.0 mi NNW 21.9 mph 28.8 mph N/A   Drizzle
10:55 AM 39.2 °F 29.8 °F 35.6 °F 87% 29.97 in 7.0 mi NNW 18.4 mph 26.5 mph N/A   Overcast
11:15 AM 39.2 °F 29.6 °F 35.6 °F 87% 29.98 in 5.0 mi NNW 19.6 mph 24.2 mph N/A   Overcast
11:35 AM 39.2 °F 30.5 °F 35.6 °F 87% 29.99 in 4.0 mi NNW 16.1 mph 27.6 mph N/A   Light Drizzle
11:55 AM 39.2 °F 29.8 °F 35.6 °F 87% 29.99 in 10.0 mi NW 18.4 mph 27.6 mph N/A   Overcast
12:15 PM 41.0 °F 31.6 °F 37.4 °F 87% 30.00 in 10.0 mi NW 20.7 mph 28.8 mph N/A   Overcast
12:35 PM 39.2 °F 29.6 °F 37.4 °F 93% 30.02 in 10.0 mi NNW 19.6 mph 29.9 mph N/A   Overcast
12:55 PM 39.2 °F 29.8 °F 37.4 °F 93% 30.03 in 10.0 mi NW 18.4 mph 31.1 mph N/A   Overcast
1:15 PM 41.0 °F 31.6 °F 37.4 °F 87% 30.04 in 10.0 mi NW 20.7 mph 31.1 mph N/A   Overcast
1:55 PM 42.8 °F 34.8 °F 35.6 °F 76% 30.06 in 10.0 mi NW 17.3 mph 29.9 mph N/A   Overcast
2:15 PM 42.8 °F 34.5 °F 35.6 °F 76% 30.06 in 10.0 mi NW 18.4 mph 26.5 mph N/A   Overcast
2:35 PM 42.8 °F 34.8 °F 35.6 °F 76% 30.06 in 10.0 mi NW 17.3 mph 26.5 mph N/A   Overcast
2:55 PM 44.6 °F 37.2 °F 35.6 °F 71% 30.06 in 10.0 mi NW 17.3 mph 24.2 mph N/A   Overcast
3:15 PM 44.6 °F 36.6 °F 35.6 °F 71% 30.08 in 10.0 mi NW 19.6 mph - N/A   Overcast
3:35 PM 42.8 °F 35.1 °F 35.6 °F 76% 30.09 in 10.0 mi NW 16.1 mph 27.6 mph N/A   Overcast
3:55 PM 42.8 °F 34.0 °F 33.8 °F 70% 30.12 in 10.0 mi NW 20.7 mph 31.1 mph N/A   Overcast
4:15 PM 42.8 °F 34.3 °F 33.8 °F 70% 30.13 in 10.0 mi NW 19.6 mph 27.6 mph N/A   Overcast
4:35 PM 42.8 °F 35.1 °F 32.0 °F 66% 30.14 in 10.0 mi NNW 16.1 mph 23.0 mph N/A   Overcast
4:55 PM 42.8 °F 35.1 °F 33.8 °F 70% 30.16 in 10.0 mi NW 16.1 mph 23.0 mph N/A   Overcast
5:15 PM 42.8 °F 35.4 °F 32.0 °F 66% 30.18 in 10.0 mi NNW 15.0 mph 23.0 mph N/A   Overcast
5:35 PM 41.0 °F 33.5 °F 33.8 °F 76% 30.19 in 10.0 mi NNW 13.8 mph 21.9 mph N/A   Overcast
5:55 PM 41.0 °F 31.9 °F 30.2 °F 65% 30.20 in 10.0 mi NNW 19.6 mph 27.6 mph N/A   Overcast
6:15 PM 39.2 °F 30.5 °F 30.2 °F 70% 30.21 in 10.0 mi NW 16.1 mph 25.3 mph N/A   Overcast
6:35 PM 39.2 °F 30.8 °F 30.2 °F 70% 30.22 in 10.0 mi NW 15.0 mph 23.0 mph N/A   Overcast
6:55 PM 39.2 °F 30.8 °F 30.2 °F 70% 30.23 in 10.0 mi NNW 15.0 mph 24.2 mph N/A   Overcast
7:15 PM 39.2 °F 32.0 °F 30.2 °F 70% 30.25 in 10.0 mi NNW 11.5 mph - N/A   Overcast
7:35 PM 39.2 °F 30.8 °F 30.2 °F 70% 30.26 in 10.0 mi NNW 15.0 mph 20.7 mph N/A   Overcast
7:55 PM 39.2 °F 30.8 °F 30.2 °F 70% 30.27 in 10.0 mi NNW 15.0 mph 23.0 mph N/A   Overcast
8:15 PM 39.2 °F 33.0 °F 30.2 °F 70% 30.27 in 10.0 mi NNW 9.2 mph - N/A   Overcast
8:35 PM 39.2 °F 31.2 °F 30.2 °F 70% 30.27 in 10.0 mi NNW 13.8 mph 21.9 mph N/A   Overcast
8:55 PM 39.2 °F 29.6 °F 30.2 °F 70% 30.28 in 10.0 mi NNW 19.6 mph 25.3 mph N/A   Overcast
9:15 PM 39.2 °F 29.8 °F 28.4 °F 65% 30.29 in 10.0 mi NNW 18.4 mph 29.9 mph N/A   Overcast
9:35 PM 39.2 °F 29.6 °F 26.6 °F 61% 30.30 in 10.0 mi NNW 19.6 mph 26.5 mph N/A   Overcast
9:55 PM 39.2 °F 30.5 °F 28.4 °F 65% 30.31 in 10.0 mi NNW 16.1 mph 21.9 mph N/A   Overcast
10:15 PM 39.2 °F 29.8 °F 28.4 °F 65% 30.32 in 10.0 mi NNW 18.4 mph 24.2 mph N/A   Overcast
10:35 PM 39.2 °F 29.8 °F 28.4 °F 65% 30.32 in 10.0 mi NNW 18.4 mph - N/A   Overcast
10:55 PM 39.2 °F 30.2 °F 28.4 °F 65% 30.33 in 10.0 mi NNW 17.3 mph 23.0 mph N/A   Overcast
11:15 PM 39.2 °F 31.6 °F 26.6 °F 61% 30.33 in 10.0 mi NNW 12.7 mph 23.0 mph N/A   Overcast
11:55 PM 39.2 °F 32.5 °F 26.6 °F 61% 30.33 in 10.0 mi NNW 10.4 mph 18.4 mph N/A   Overcast